createdAt,value
2022-11-16T00:00:36.134Z,41.40
2022-11-16T00:01:59.655Z,27.75
2022-11-16T00:03:22.888Z,58.75
2022-11-16T00:04:47.877Z,21.98
2022-11-16T00:06:11.434Z,36.75
2022-11-16T00:07:34.888Z,40.58
2022-11-16T00:09:17.558Z,39.45
2022-11-16T00:10:40.936Z,49.72
2022-11-16T00:12:06.727Z,48.33
2022-11-16T00:13:29.124Z,42.90
2022-11-16T00:14:52.931Z,49.65
2022-11-16T00:16:18.562Z,41.58
2022-11-16T00:17:41.921Z,34.30
2022-11-16T00:19:07.107Z,28.00
2022-11-16T00:20:31.973Z,18.20
2022-11-16T00:21:55.384Z,41.13
2022-11-16T00:23:18.806Z,39.53
2022-11-16T00:24:42.259Z,37.15
2022-11-16T00:26:05.469Z,45.28
2022-11-16T00:27:29.073Z,34.58
2022-11-16T00:28:52.603Z,32.63
2022-11-16T00:30:16.547Z,38.65
2022-11-16T00:31:39.914Z,41.67
2022-11-16T00:33:03.602Z,34.63
2022-11-16T00:34:26.959Z,45.70
2022-11-16T00:35:50.673Z,48.70
2022-11-16T00:37:14.051Z,38.22
2022-11-16T00:38:39.537Z,39.33
2022-11-16T00:40:03.123Z,34.08
2022-11-16T00:41:26.462Z,44.28
2022-11-16T00:42:49.850Z,34.72
2022-11-16T00:44:13.729Z,34.17
2022-11-16T00:45:38.448Z,30.02
2022-11-16T00:47:01.796Z,24.15
2022-11-16T00:48:24.186Z,43.15
2022-11-16T00:49:47.627Z,17.02
2022-11-16T00:51:11.769Z,36.83
2022-11-16T00:52:35.120Z,35.33
2022-11-16T00:53:57.542Z,24.75
2022-11-16T00:55:22.176Z,43.00
2022-11-16T00:56:45.629Z,38.70
2022-11-16T00:58:08.117Z,36.97
2022-11-16T00:59:31.456Z,42.42
2022-11-16T01:00:53.983Z,31.88
2022-11-16T01:02:17.628Z,36.65
2022-11-16T01:03:40.003Z,27.33
2022-11-16T01:05:03.439Z,43.35
2022-11-16T01:06:27.267Z,28.75
2022-11-16T01:07:51.563Z,39.78
2022-11-16T01:09:14.894Z,41.88
2022-11-16T01:10:39.919Z,48.00
2022-11-16T01:12:12.710Z,33.40
2022-11-16T01:13:35.104Z,35.88
2022-11-16T01:14:58.524Z,29.45
2022-11-16T01:16:22.200Z,24.00
2022-11-16T01:17:46.231Z,18.48
2022-11-16T01:19:09.101Z,29.13
2022-11-16T01:20:32.554Z,26.88
2022-11-16T01:21:56.446Z,40.85
2022-11-16T01:23:19.789Z,23.60
2022-11-16T01:24:43.309Z,33.97
2022-11-16T01:26:07.103Z,44.90
2022-11-16T01:27:29.661Z,41.78
2022-11-16T01:28:53.939Z,33.20
2022-11-16T01:30:17.735Z,48.90
2022-11-16T01:31:41.332Z,43.72
2022-11-16T01:33:04.846Z,34.10
2022-11-16T01:34:27.281Z,33.95
2022-11-16T01:35:50.912Z,35.38
2022-11-16T01:37:15.657Z,21.30
2022-11-16T01:38:38.033Z,23.85
2022-11-16T01:40:01.452Z,32.22
2022-11-16T01:41:25.677Z,26.13
2022-11-16T01:42:48.997Z,30.48
2022-11-16T01:44:44.444Z,40.13
2022-11-16T01:46:07.806Z,34.88
2022-11-16T01:47:30.545Z,42.88
2022-11-16T01:49:00.612Z,38.92
2022-11-16T01:50:24.543Z,30.45
2022-11-16T01:51:49.457Z,20.80
2022-11-16T01:53:15.336Z,37.55
2022-11-16T01:54:40.486Z,34.00
2022-11-16T01:56:04.009Z,34.25
2022-11-16T01:57:29.493Z,32.00
2022-11-16T01:58:53.340Z,30.92
2022-11-16T02:00:17.031Z,30.27
2022-11-16T02:01:40.637Z,28.65
2022-11-16T02:03:03.177Z,32.38
2022-11-16T02:04:26.540Z,35.20
2022-11-16T02:06:06.574Z,41.67
2022-11-16T02:07:58.453Z,37.47
2022-11-16T02:09:55.383Z,40.30
2022-11-16T02:11:43.038Z,28.58
2022-11-16T02:13:18.754Z,34.63
2022-11-16T02:14:53.633Z,13.25
2022-11-16T02:16:23.938Z,40.05
2022-11-16T02:17:59.847Z,38.53
2022-11-16T02:20:03.815Z,34.33
2022-11-16T02:21:34.700Z,26.77
2022-11-16T02:23:11.538Z,21.48
2022-11-16T02:24:46.517Z,32.10
2022-11-16T02:26:25.194Z,33.50
2022-11-16T02:28:18.320Z,37.88
2022-11-16T02:29:44.180Z,15.98
2022-11-16T02:31:08.811Z,31.20
2022-11-16T02:32:35.414Z,25.02
2022-11-16T02:34:00.514Z,23.85
2022-11-16T02:35:28.213Z,35.10
2022-11-16T02:36:53.005Z,28.25
2022-11-16T02:38:20.304Z,41.08
2022-11-16T02:39:44.801Z,36.60
2022-11-16T02:41:09.826Z,28.65
2022-11-16T02:42:37.450Z,25.73
2022-11-16T02:44:04.503Z,35.08
2022-11-16T02:45:32.086Z,39.85
2022-11-16T02:46:58.827Z,26.33
2022-11-16T02:48:25.250Z,19.52
2022-11-16T02:49:51.015Z,22.38
2022-11-16T02:51:14.909Z,24.08
2022-11-16T02:52:37.773Z,21.42
2022-11-16T02:54:03.610Z,35.90
2022-11-16T02:55:28.219Z,40.47
2022-11-16T02:56:54.398Z,24.88
2022-11-16T02:58:21.086Z,23.25
2022-11-16T02:59:47.395Z,23.67
2022-11-16T03:01:16.971Z,24.38
2022-11-16T03:02:46.638Z,21.50
2022-11-16T03:04:12.938Z,13.23
2022-11-16T03:05:38.777Z,28.95
2022-11-16T03:07:05.372Z,22.02
2022-11-16T03:08:31.007Z,47.20
2022-11-16T03:09:54.773Z,37.00
2022-11-16T03:11:50.449Z,27.58
2022-11-16T03:13:15.570Z,32.00
2022-11-16T03:14:44.017Z,41.97
2022-11-16T03:16:12.064Z,40.30
2022-11-16T03:17:39.449Z,29.17
2022-11-16T03:19:05.637Z,28.02
2022-11-16T03:20:29.270Z,19.20
2022-11-16T03:21:55.876Z,38.70
2022-11-16T03:23:19.235Z,28.20
2022-11-16T03:24:42.043Z,36.63
2022-11-16T03:26:08.281Z,11.93
2022-11-16T03:27:36.266Z,33.97
2022-11-16T03:29:03.214Z,12.20
2022-11-16T03:30:28.584Z,33.10
2022-11-16T03:31:55.777Z,20.67
2022-11-16T03:33:22.946Z,33.20
2022-11-16T03:34:50.701Z,16.60
2022-11-16T03:36:17.237Z,32.50
2022-11-16T03:37:41.163Z,35.67
2022-11-16T03:39:09.357Z,28.77
2022-11-16T03:40:34.610Z,28.67
2022-11-16T03:41:58.140Z,40.65
2022-11-16T03:43:21.566Z,38.53
2022-11-16T03:44:45.642Z,37.53
2022-11-16T03:46:08.011Z,35.88
2022-11-16T03:47:33.171Z,16.95
2022-11-16T03:48:59.351Z,10.60
2022-11-16T03:50:22.797Z,24.27
2022-11-16T03:51:45.166Z,32.92
2022-11-16T03:53:08.531Z,37.60
2022-11-16T03:54:30.912Z,22.50
2022-11-16T03:55:54.301Z,22.85
2022-11-16T03:57:18.533Z,28.02
2022-11-16T03:58:40.929Z,20.13
2022-11-16T04:00:05.080Z,42.53
2022-11-16T04:01:28.463Z,23.35
2022-11-16T04:02:52.187Z,35.25
2022-11-16T04:04:29.609Z,43.85
2022-11-16T04:06:10.268Z,34.65
2022-11-16T04:07:51.374Z,32.47
2022-11-16T04:09:32.283Z,25.55
2022-11-16T04:11:13.483Z,13.63
2022-11-16T04:12:54.251Z,37.00
2022-11-16T04:14:38.973Z,27.38
2022-11-16T04:16:19.989Z,35.90
2022-11-16T04:18:00.951Z,23.30
2022-11-16T04:19:43.231Z,21.48
2022-11-16T04:21:24.273Z,13.48
2022-11-16T04:23:07.858Z,36.42
2022-11-16T04:24:32.637Z,33.90
2022-11-16T04:25:55.149Z,41.63
2022-11-16T04:27:39.136Z,20.08
2022-11-16T04:29:02.595Z,34.17
2022-11-16T04:30:25.009Z,16.60
2022-11-16T04:32:06.123Z,43.80
2022-11-16T04:33:47.935Z,26.10
2022-11-16T04:35:41.503Z,36.30
2022-11-16T04:37:22.175Z,44.75
2022-11-16T04:38:45.552Z,43.75
2022-11-16T04:40:13.338Z,35.00
2022-11-16T04:41:54.142Z,45.80
2022-11-16T04:43:17.814Z,48.72
2022-11-16T04:44:58.520Z,30.52
2022-11-16T04:46:39.465Z,34.47
2022-11-16T04:48:03.073Z,44.15
2022-11-16T04:49:26.486Z,29.75
2022-11-16T04:50:51.297Z,21.65
2022-11-16T04:52:14.754Z,41.30
2022-11-16T04:53:38.121Z,36.30
2022-11-16T04:55:00.498Z,51.72
2022-11-16T04:56:23.881Z,47.42
2022-11-16T04:57:47.286Z,24.80
2022-11-16T04:59:09.832Z,59.33
2022-11-16T05:00:33.359Z,40.75
2022-11-16T05:02:10.708Z,53.65
2022-11-16T05:03:34.079Z,46.97
2022-11-16T05:04:56.762Z,15.80
2022-11-16T05:06:21.470Z,29.50
2022-11-16T05:07:44.922Z,55.00
2022-11-16T05:09:07.770Z,41.13
2022-11-16T05:10:31.134Z,43.88
2022-11-16T05:11:54.398Z,36.25
2022-11-16T05:13:17.747Z,52.25
2022-11-16T05:14:40.273Z,41.17
2022-11-16T05:16:03.650Z,57.47
2022-11-16T05:17:28.365Z,42.97
2022-11-16T05:19:11.268Z,44.83
2022-11-16T05:20:51.911Z,55.58
2022-11-16T05:22:16.611Z,59.15
2022-11-16T05:23:57.637Z,49.33
2022-11-16T05:25:21.124Z,54.85
2022-11-16T05:26:43.532Z,43.55
2022-11-16T05:28:07.005Z,41.10
2022-11-16T05:29:29.925Z,45.35
2022-11-16T05:30:53.270Z,57.95
2022-11-16T05:32:16.925Z,43.70
2022-11-16T05:33:40.250Z,56.83
2022-11-16T05:35:03.709Z,51.05
2022-11-16T05:36:26.094Z,66.53
2022-11-16T05:37:50.927Z,58.05
2022-11-16T05:39:14.398Z,61.83
2022-11-16T05:40:37.746Z,51.05
2022-11-16T05:42:00.180Z,56.47
2022-11-16T05:43:23.757Z,68.65
2022-11-16T05:44:47.142Z,59.47
2022-11-16T05:46:09.710Z,56.55
2022-11-16T05:47:33.381Z,62.75
2022-11-16T05:48:55.850Z,57.63
2022-11-16T05:50:19.470Z,61.70
2022-11-16T05:51:44.079Z,50.83
2022-11-16T05:53:08.763Z,68.35
2022-11-16T05:54:31.427Z,63.63
2022-11-16T05:55:54.820Z,47.97
2022-11-16T05:57:18.226Z,49.70
2022-11-16T05:58:41.762Z,68.53
2022-11-16T06:00:06.032Z,63.25
2022-11-16T06:01:28.599Z,67.13
2022-11-16T06:02:52.071Z,66.78
2022-11-16T06:04:16.430Z,40.97
2022-11-16T06:05:40.789Z,54.97
2022-11-16T06:07:03.358Z,64.00
2022-11-16T06:08:28.066Z,72.40
2022-11-16T06:09:51.561Z,55.08
2022-11-16T06:11:14.183Z,60.45
2022-11-16T06:12:37.560Z,75.45
2022-11-16T06:14:03.284Z,80.07
2022-11-16T06:15:25.650Z,72.00
2022-11-16T06:16:49.014Z,65.03
2022-11-16T06:18:11.546Z,62.65
2022-11-16T06:19:36.379Z,68.00
2022-11-16T06:20:58.778Z,51.55
2022-11-16T06:22:22.158Z,54.90
2022-11-16T06:23:46.907Z,78.28
2022-11-16T06:25:11.796Z,62.13
2022-11-16T06:26:35.148Z,41.92
2022-11-16T06:27:57.622Z,61.05
2022-11-16T06:29:21.108Z,67.85
2022-11-16T06:30:43.459Z,73.35
2022-11-16T06:32:07.150Z,63.90
2022-11-16T06:33:33.522Z,67.00
2022-11-16T06:34:57.686Z,69.32
2022-11-16T06:36:21.123Z,70.53
2022-11-16T06:37:44.810Z,59.35
2022-11-16T06:39:11.315Z,62.30
2022-11-16T06:40:34.051Z,65.30
2022-11-16T06:41:57.435Z,59.40
2022-11-16T06:43:20.312Z,69.80
2022-11-16T06:44:43.802Z,62.55
2022-11-16T06:46:06.389Z,66.22
2022-11-16T06:47:29.757Z,81.03
2022-11-16T06:48:53.231Z,62.90
2022-11-16T06:50:19.126Z,80.68
2022-11-16T06:51:42.465Z,74.35
2022-11-16T06:53:06.216Z,44.35
2022-11-16T06:54:30.954Z,73.38
2022-11-16T06:55:53.411Z,75.65
2022-11-16T06:57:16.755Z,80.45
2022-11-16T06:58:42.800Z,75.05
2022-11-16T07:00:07.808Z,87.75
2022-11-16T07:01:31.211Z,66.05
2022-11-16T07:02:54.585Z,83.32
2022-11-16T07:04:18.034Z,74.18
2022-11-16T07:05:41.925Z,78.78
2022-11-16T07:07:05.479Z,79.15
2022-11-16T07:08:30.034Z,56.03
2022-11-16T07:09:54.767Z,81.22
2022-11-16T07:11:18.210Z,71.00
2022-11-16T07:12:41.605Z,79.22
2022-11-16T07:14:05.371Z,76.82
2022-11-16T07:15:28.791Z,77.38
2022-11-16T07:16:57.953Z,73.15
2022-11-16T07:18:22.796Z,62.15
2022-11-16T07:19:46.152Z,73.10
2022-11-16T07:21:10.479Z,90.47
2022-11-16T07:22:33.555Z,81.25
2022-11-16T07:23:56.950Z,51.30
2022-11-16T07:25:21.706Z,58.05
2022-11-16T07:26:45.116Z,43.80
2022-11-16T07:28:08.479Z,69.32
2022-11-16T07:29:32.072Z,51.40
2022-11-16T07:30:55.408Z,66.28
2022-11-16T07:32:18.727Z,76.85
2022-11-16T07:33:41.323Z,56.53
2022-11-16T07:35:05.204Z,65.13
2022-11-16T07:36:28.583Z,75.57
2022-11-16T07:37:51.915Z,59.90
2022-11-16T07:39:15.254Z,79.57
2022-11-16T07:40:40.007Z,80.68
2022-11-16T07:42:03.362Z,83.72
2022-11-16T07:43:26.906Z,54.15
2022-11-16T07:44:50.294Z,83.78
2022-11-16T07:48:00.033Z,73.57
2022-11-16T07:49:23.379Z,111.47
2022-11-16T07:50:46.810Z,52.55
2022-11-16T07:52:10.902Z,82.53
2022-11-16T07:53:34.966Z,81.15
2022-11-16T07:54:58.405Z,70.75
2022-11-16T07:56:23.601Z,74.10
2022-11-16T07:57:52.943Z,69.63
2022-11-16T07:59:16.721Z,53.17
2022-11-16T08:00:40.134Z,57.63
2022-11-16T08:02:03.545Z,82.60
2022-11-16T08:03:26.074Z,71.93
2022-11-16T08:04:49.491Z,53.80
2022-11-16T08:06:15.377Z,16.33
2022-11-16T08:07:37.757Z,76.88
2022-11-16T08:09:01.334Z,67.10
2022-11-16T08:10:24.803Z,60.38
2022-11-16T08:11:50.965Z,45.38
2022-11-16T08:13:14.647Z,59.42
2022-11-16T08:14:38.031Z,89.53
2022-11-16T08:16:02.622Z,82.90
2022-11-16T08:17:25.985Z,57.75
2022-11-16T08:18:49.388Z,65.93
2022-11-16T08:20:13.278Z,82.88
2022-11-16T08:21:36.606Z,43.13
2022-11-16T08:23:01.763Z,78.00
2022-11-16T08:24:25.121Z,52.85
2022-11-16T08:25:48.507Z,54.60
2022-11-16T08:27:15.270Z,68.20
2022-11-16T08:28:39.057Z,66.72
2022-11-16T08:30:03.095Z,72.93
2022-11-16T08:31:27.875Z,62.03
2022-11-16T08:32:51.203Z,37.03
2022-11-16T08:34:14.575Z,66.88
2022-11-16T08:35:38.297Z,33.20
2022-11-16T08:37:01.733Z,46.65
2022-11-16T08:38:24.126Z,31.40
2022-11-16T08:39:47.531Z,53.90
2022-11-16T08:41:10.927Z,67.25
2022-11-16T08:42:39.412Z,47.13
2022-11-16T08:44:06.191Z,37.00
2022-11-16T08:45:29.613Z,67.53
2022-11-16T08:46:52.967Z,54.13
2022-11-16T08:48:15.660Z,34.10
2022-11-16T08:49:39.065Z,57.00
2022-11-16T08:51:21.342Z,23.17
2022-11-16T08:52:44.938Z,25.65
2022-11-16T08:54:09.433Z,44.35
2022-11-16T08:55:32.856Z,12.40
2022-11-16T08:56:56.195Z,43.03
2022-11-16T08:58:20.916Z,53.70
2022-11-16T08:59:44.262Z,19.45
2022-11-16T09:01:12.451Z,71.35
2022-11-16T09:02:35.894Z,29.40
2022-11-16T09:03:59.416Z,42.15
2022-11-16T09:05:22.791Z,46.30
2022-11-16T09:06:46.596Z,50.58
2022-11-16T09:08:09.943Z,61.17
2022-11-16T09:09:33.276Z,35.20
2022-11-16T09:10:56.671Z,58.78
2022-11-16T09:12:20.023Z,44.17
2022-11-16T09:13:44.925Z,25.20
2022-11-16T09:15:09.416Z,44.80
2022-11-16T09:16:32.915Z,35.45
2022-11-16T09:17:56.404Z,51.85
2022-11-16T09:19:20.511Z,39.88
2022-11-16T09:20:45.415Z,24.55
2022-11-16T09:22:08.757Z,36.42
2022-11-16T09:23:32.475Z,41.45
2022-11-16T09:24:55.843Z,39.33
2022-11-16T09:26:21.412Z,21.10
2022-11-16T09:27:44.831Z,40.15
2022-11-16T09:29:12.532Z,30.58
2022-11-16T09:30:35.875Z,42.55
2022-11-16T09:31:59.338Z,20.80
2022-11-16T09:33:22.712Z,56.55
2022-11-16T09:34:46.101Z,50.50
2022-11-16T09:36:10.764Z,45.35
2022-11-16T09:37:33.157Z,46.22
2022-11-16T09:39:26.207Z,26.05
2022-11-16T09:40:41.899Z,20.83
2022-11-16T09:42:16.257Z,34.47
2022-11-16T09:43:51.040Z,34.67
2022-11-16T09:45:19.181Z,40.22
2022-11-16T09:46:45.784Z,32.65
2022-11-16T09:48:12.470Z,27.27
2022-11-16T09:49:39.285Z,30.90
2022-11-16T09:51:08.182Z,30.85
2022-11-16T09:52:34.976Z,13.07
2022-11-16T09:54:01.809Z,20.05
2022-11-16T09:55:29.918Z,21.10
2022-11-16T09:56:55.716Z,20.80
2022-11-16T09:58:23.275Z,22.27
2022-11-16T09:59:49.924Z,12.38
2022-11-16T10:01:22.885Z,20.33
2022-11-16T10:02:49.630Z,8.23
2022-11-16T10:04:17.003Z,9.38
2022-11-16T10:05:44.992Z,21.63
2022-11-16T10:07:13.474Z,6.93
2022-11-16T10:08:43.110Z,12.75
2022-11-16T10:10:07.231Z,8.23
2022-11-16T10:11:49.191Z,13.13
2022-11-16T10:13:24.629Z,3.92
2022-11-16T10:15:07.575Z,12.88
2022-11-16T10:16:35.789Z,13.98
2022-11-16T10:18:14.155Z,11.30
2022-11-16T10:19:45.510Z,7.78
2022-11-16T10:21:24.871Z,15.93
2022-11-16T10:22:51.280Z,4.93
2022-11-16T10:24:26.138Z,12.10
2022-11-16T10:25:55.242Z,15.15
2022-11-16T10:27:35.349Z,14.02
2022-11-16T10:29:11.468Z,16.17
2022-11-16T10:30:37.148Z,13.00
2022-11-16T10:32:14.137Z,16.98
2022-11-16T10:33:38.482Z,6.07
2022-11-16T10:35:06.468Z,20.08
2022-11-16T10:36:33.016Z,16.80
2022-11-16T10:37:58.986Z,18.95
2022-11-16T10:39:22.481Z,25.95
2022-11-16T10:40:48.991Z,25.38
2022-11-16T10:42:14.236Z,22.42
2022-11-16T10:43:37.807Z,25.90
2022-11-16T10:45:07.768Z,23.92
2022-11-16T10:46:34.702Z,13.52
2022-11-16T10:48:03.029Z,17.65
2022-11-16T10:49:32.877Z,18.08
2022-11-16T10:50:56.599Z,13.45
2022-11-16T10:52:19.985Z,25.90
2022-11-16T10:53:45.074Z,23.20
2022-11-16T10:55:09.320Z,12.05
2022-11-16T10:56:37.994Z,20.80
2022-11-16T10:58:03.046Z,24.27
2022-11-16T10:59:40.182Z,9.00
2022-11-16T11:01:03.743Z,19.15
2022-11-16T11:02:34.489Z,20.75
2022-11-16T11:04:10.727Z,19.98
2022-11-16T11:05:34.923Z,15.70
2022-11-16T11:07:00.083Z,23.92
2022-11-16T11:08:30.341Z,20.65
2022-11-16T11:09:54.716Z,15.40
2022-11-16T11:11:40.204Z,23.42
2022-11-16T11:13:23.453Z,20.10
2022-11-16T11:15:06.792Z,8.43
2022-11-16T11:16:30.169Z,15.23
2022-11-16T11:18:12.594Z,14.07
2022-11-16T11:19:37.290Z,15.10
2022-11-16T11:21:10.178Z,12.90
2022-11-16T11:22:34.335Z,11.77
2022-11-16T11:24:10.880Z,13.57
2022-11-16T11:25:49.693Z,19.73
2022-11-16T11:27:13.198Z,17.67
2022-11-16T11:28:38.771Z,21.30
2022-11-16T11:30:02.336Z,10.93
2022-11-16T11:31:29.586Z,9.30
2022-11-16T11:32:53.426Z,9.85
2022-11-16T11:34:20.039Z,15.38
2022-11-16T11:35:44.819Z,17.55
2022-11-16T11:37:14.507Z,15.00
2022-11-16T11:38:58.059Z,18.25
2022-11-16T11:40:24.476Z,13.55
2022-11-16T11:42:01.207Z,16.13
2022-11-16T11:43:25.676Z,19.23
2022-11-16T11:44:54.513Z,24.08
2022-11-16T11:46:30.656Z,11.18
2022-11-16T11:48:21.084Z,20.80
2022-11-16T11:49:50.046Z,27.42
2022-11-16T11:51:20.508Z,16.55
2022-11-16T11:52:56.425Z,25.08
2022-11-16T11:54:23.346Z,22.08
2022-11-16T11:55:45.717Z,22.10
2022-11-16T11:57:12.925Z,16.83
2022-11-16T11:58:39.934Z,24.30
2022-11-16T12:00:05.209Z,20.45
2022-11-16T12:02:02.282Z,24.52
2022-11-16T12:03:52.692Z,19.33
2022-11-16T12:05:36.618Z,14.50
2022-11-16T12:07:04.325Z,15.77
2022-11-16T12:08:41.160Z,18.15
2022-11-16T12:10:11.858Z,8.15
2022-11-16T12:11:45.844Z,24.23
2022-11-16T12:13:28.692Z,25.67
2022-11-16T12:15:09.479Z,8.90
2022-11-16T12:16:37.654Z,23.48
2022-11-16T12:18:12.932Z,24.13
2022-11-16T12:20:05.474Z,24.33
2022-11-16T12:21:38.893Z,16.38
2022-11-16T12:23:17.897Z,16.30
2022-11-16T12:24:57.661Z,16.83
2022-11-16T12:26:27.119Z,15.60
2022-11-16T12:28:04.025Z,17.50
2022-11-16T12:29:30.645Z,23.10
2022-11-16T12:31:03.298Z,22.80
2022-11-16T12:32:37.845Z,19.63
2022-11-16T12:34:06.849Z,21.02
2022-11-16T12:35:41.698Z,29.92
2022-11-16T12:37:10.918Z,23.25
2022-11-16T12:38:47.569Z,22.27
2022-11-16T12:40:28.653Z,22.90
2022-11-16T12:42:03.646Z,13.68
2022-11-16T12:43:30.926Z,24.13
2022-11-16T12:45:19.843Z,13.77
2022-11-16T12:46:50.652Z,23.02
2022-11-16T12:48:29.822Z,8.98
2022-11-16T12:50:08.511Z,10.00
2022-11-16T12:51:43.078Z,6.63
2022-11-16T12:53:26.294Z,17.58
2022-11-16T12:55:25.793Z,25.63
2022-11-16T12:56:54.471Z,5.18
2022-11-16T12:58:23.815Z,17.38
2022-11-16T13:00:01.457Z,16.58
2022-11-16T13:01:30.015Z,15.57
2022-11-16T13:03:10.751Z,18.13
2022-11-16T13:04:36.806Z,28.95
2022-11-16T13:06:03.291Z,26.52
2022-11-16T13:07:30.480Z,19.08
2022-11-16T13:08:58.999Z,28.48
2022-11-16T13:10:27.771Z,20.80
2022-11-16T13:11:53.393Z,27.20
2022-11-16T13:13:36.458Z,23.63
2022-11-16T13:15:02.362Z,11.30
2022-11-16T13:16:26.092Z,14.38
2022-11-16T13:17:54.593Z,10.35
2022-11-16T13:19:20.959Z,17.40
2022-11-16T13:20:49.427Z,17.90
2022-11-16T13:22:18.267Z,24.63
2022-11-16T13:23:48.230Z,18.88
2022-11-16T13:25:17.358Z,18.25
2022-11-16T13:26:45.764Z,19.48
2022-11-16T13:28:16.699Z,26.02
2022-11-16T13:29:44.334Z,16.90
2022-11-16T13:31:12.067Z,17.92
2022-11-16T13:32:48.845Z,23.83
2022-11-16T13:34:18.041Z,22.40
2022-11-16T13:35:41.827Z,17.50
2022-11-16T13:37:46.489Z,14.13
2022-11-16T13:39:10.693Z,15.68
2022-11-16T13:40:34.916Z,21.83
2022-11-16T13:42:12.793Z,20.17
2022-11-16T13:43:36.195Z,21.38
2022-11-16T13:45:08.092Z,23.23
2022-11-16T13:47:01.024Z,14.98
2022-11-16T13:48:30.502Z,12.48
2022-11-16T13:49:56.576Z,14.27
2022-11-16T13:51:22.898Z,15.35
2022-11-16T13:53:51.326Z,18.15
2022-11-16T13:54:49.887Z,16.20
2022-11-16T13:56:13.765Z,16.63
2022-11-16T13:57:38.855Z,18.05
2022-11-16T13:59:02.254Z,14.27
2022-11-16T14:00:29.537Z,16.48
2022-11-16T14:02:00.713Z,19.48
2022-11-16T14:03:38.176Z,20.10
2022-11-16T14:05:03.033Z,20.58
2022-11-16T14:06:55.786Z,17.65
2022-11-16T14:08:47.535Z,16.73
2022-11-16T14:10:11.753Z,16.60
2022-11-16T14:11:36.530Z,7.55
2022-11-16T14:13:01.981Z,12.63
2022-11-16T14:15:03.291Z,13.70
2022-11-16T14:16:57.088Z,20.05
2022-11-16T14:18:38.103Z,18.70
2022-11-16T14:20:02.366Z,12.20
2022-11-16T14:21:47.716Z,15.77
2022-11-16T14:23:19.934Z,19.60
2022-11-16T14:24:47.608Z,17.40
2022-11-16T14:26:24.655Z,24.00
2022-11-16T14:27:53.142Z,17.55
2022-11-16T14:29:38.774Z,10.90
2022-11-16T14:31:11.285Z,14.27
2022-11-16T14:32:42.401Z,19.42
2022-11-16T14:34:06.441Z,22.80
2022-11-16T14:35:34.019Z,11.85
2022-11-16T14:36:57.624Z,15.27
2022-11-16T14:38:27.780Z,22.65
2022-11-16T14:39:52.073Z,20.08
2022-11-16T14:41:21.951Z,9.60
2022-11-16T14:43:14.855Z,14.63
2022-11-16T14:44:36.474Z,16.02
2022-11-16T14:46:03.555Z,14.43
2022-11-16T14:47:28.740Z,13.40
2022-11-16T14:48:52.149Z,17.10
2022-11-16T14:50:20.574Z,11.93
2022-11-16T14:51:46.306Z,15.68
2022-11-16T14:53:11.463Z,16.70
2022-11-16T14:54:39.680Z,11.60
2022-11-16T14:56:13.934Z,14.75
2022-11-16T14:57:37.566Z,12.40
2022-11-16T14:59:02.136Z,15.15
2022-11-16T15:00:30.839Z,9.63
2022-11-16T15:01:54.444Z,4.60
2022-11-16T15:03:17.979Z,14.25
2022-11-16T15:04:41.436Z,16.10
2022-11-16T15:06:07.289Z,13.88
2022-11-16T15:07:31.221Z,15.00
2022-11-16T15:08:56.836Z,8.25
2022-11-16T15:10:22.330Z,10.77
2022-11-16T15:12:07.234Z,12.55
2022-11-16T15:13:30.676Z,15.27
2022-11-16T15:14:55.270Z,10.77
2022-11-16T15:16:21.012Z,14.05
2022-11-16T15:17:46.305Z,13.55
2022-11-16T15:19:14.002Z,16.95
2022-11-16T15:20:39.355Z,15.60
2022-11-16T15:22:04.246Z,18.55
2022-11-16T15:23:30.654Z,9.85
2022-11-16T15:24:58.702Z,12.45
2022-11-16T15:26:23.369Z,16.58
2022-11-16T15:27:46.770Z,7.57
2022-11-16T15:29:16.599Z,19.88
2022-11-16T15:30:40.368Z,12.77
2022-11-16T15:32:05.611Z,14.73
2022-11-16T15:33:30.601Z,11.10
2022-11-16T15:34:55.230Z,11.93
2022-11-16T15:36:26.386Z,10.45
2022-11-16T15:37:50.526Z,15.60
2022-11-16T15:39:16.765Z,15.63
2022-11-16T15:40:40.235Z,17.27
2022-11-16T15:42:04.179Z,13.95
2022-11-16T15:43:30.064Z,12.77
2022-11-16T15:44:52.989Z,9.70
2022-11-16T15:46:16.811Z,12.73
2022-11-16T15:47:42.029Z,8.40
2022-11-16T15:49:05.630Z,14.80
2022-11-16T15:50:30.585Z,17.60
2022-11-16T15:51:53.964Z,10.48
2022-11-16T15:53:36.008Z,15.00
2022-11-16T15:55:05.435Z,12.00
2022-11-16T15:56:31.620Z,8.63
2022-11-16T15:58:13.897Z,8.65
2022-11-16T15:59:38.204Z,5.90
2022-11-16T16:01:01.699Z,4.93
2022-11-16T16:02:27.375Z,16.25
2022-11-16T16:03:58.754Z,13.43
2022-11-16T16:05:24.178Z,9.80
2022-11-16T16:06:50.312Z,12.35
2022-11-16T16:08:36.649Z,17.50
2022-11-16T16:10:14.187Z,19.75
2022-11-16T16:11:37.547Z,8.45
2022-11-16T16:13:01.603Z,11.77
2022-11-16T16:14:30.651Z,7.75
2022-11-16T16:16:22.674Z,10.13
2022-11-16T16:17:47.452Z,10.75
2022-11-16T16:19:35.591Z,8.23
2022-11-16T16:20:58.921Z,5.38
2022-11-16T16:22:27.435Z,8.32
2022-11-16T16:23:51.263Z,14.93
2022-11-16T16:25:29.157Z,11.38
2022-11-16T16:26:52.506Z,9.20
2022-11-16T16:28:15.897Z,10.40
2022-11-16T16:29:39.241Z,4.47
2022-11-16T16:31:02.591Z,12.32
2022-11-16T16:32:27.848Z,10.80
2022-11-16T16:33:51.195Z,13.10
2022-11-16T16:35:19.356Z,7.03
2022-11-16T16:36:42.699Z,11.93
2022-11-16T16:38:14.246Z,6.57
2022-11-16T16:39:38.654Z,7.97
2022-11-16T16:41:03.460Z,6.82
2022-11-16T16:42:27.055Z,14.85
2022-11-16T16:43:50.406Z,10.18
2022-11-16T16:45:17.057Z,6.10
2022-11-16T16:46:42.788Z,6.85
2022-11-16T16:48:06.790Z,4.13
2022-11-16T16:49:30.155Z,8.02
2022-11-16T16:50:54.953Z,7.50
2022-11-16T16:52:18.467Z,11.00
2022-11-16T16:53:41.818Z,7.07
2022-11-16T16:55:05.657Z,12.18
2022-11-16T16:56:28.993Z,11.30
2022-11-16T16:57:53.897Z,6.10
2022-11-16T16:59:17.269Z,11.57
2022-11-16T17:00:40.787Z,17.10
2022-11-16T17:02:04.198Z,9.63
2022-11-16T17:03:27.568Z,12.25
2022-11-16T17:04:50.911Z,8.95
2022-11-16T17:06:15.615Z,12.93
2022-11-16T17:07:39.216Z,7.63
2022-11-16T17:09:02.594Z,11.10
2022-11-16T17:10:26.104Z,8.50
2022-11-16T17:11:49.666Z,11.00
2022-11-16T17:13:13.011Z,9.55
2022-11-16T17:14:36.393Z,8.25
2022-11-16T17:15:59.731Z,9.55
2022-11-16T17:17:24.714Z,8.65
2022-11-16T17:18:48.138Z,5.90
2022-11-16T17:20:12.733Z,6.38
2022-11-16T17:21:37.433Z,8.27
2022-11-16T17:23:00.775Z,13.45
2022-11-16T17:24:24.954Z,5.68
2022-11-16T17:25:48.337Z,9.75
2022-11-16T17:27:11.716Z,2.38
2022-11-16T17:28:35.311Z,8.10
2022-11-16T17:29:59.096Z,6.43
2022-11-16T17:31:22.719Z,8.02
2022-11-16T17:32:46.055Z,8.15
2022-11-16T17:34:13.319Z,12.13
2022-11-16T17:35:37.246Z,10.82
2022-11-16T17:37:01.954Z,7.78
2022-11-16T17:38:25.303Z,10.77
2022-11-16T17:39:48.701Z,17.35
2022-11-16T17:41:13.653Z,10.90
2022-11-16T17:42:37.022Z,8.80
2022-11-16T17:44:00.372Z,6.10
2022-11-16T17:45:23.825Z,9.10
2022-11-16T17:46:47.188Z,10.65
2022-11-16T17:48:10.541Z,11.45
2022-11-16T17:49:33.894Z,9.07
2022-11-16T17:50:57.263Z,11.38
2022-11-16T17:52:21.953Z,10.48
2022-11-16T17:53:45.481Z,7.63
2022-11-16T17:55:09.644Z,6.40
2022-11-16T17:56:32.985Z,9.57
2022-11-16T17:57:56.445Z,6.15
2022-11-16T17:59:20.629Z,7.57
2022-11-16T18:00:46.419Z,6.63
2022-11-16T18:02:12.220Z,6.15
2022-11-16T18:03:37.659Z,8.88
2022-11-16T18:05:01.110Z,9.13
2022-11-16T18:06:25.988Z,9.07
2022-11-16T18:07:50.653Z,10.65
2022-11-16T18:09:14.055Z,8.45
2022-11-16T18:10:38.045Z,11.00
2022-11-16T18:12:01.493Z,6.78
2022-11-16T18:13:24.855Z,10.02
2022-11-16T18:15:13.611Z,11.45
2022-11-16T18:16:32.789Z,7.10
2022-11-16T18:17:56.694Z,6.63
2022-11-16T18:19:20.975Z,6.05
2022-11-16T18:20:44.512Z,11.88
2022-11-16T18:22:07.944Z,9.77
2022-11-16T18:23:33.801Z,5.10
2022-11-16T18:24:57.402Z,5.05
2022-11-16T18:26:22.294Z,7.03
2022-11-16T18:27:45.642Z,4.40
2022-11-16T18:29:15.349Z,7.07
2022-11-16T18:30:38.817Z,8.75
2022-11-16T18:32:02.718Z,6.10
2022-11-16T18:33:30.268Z,10.65
2022-11-16T18:34:54.059Z,5.35
2022-11-16T18:36:18.248Z,9.20
2022-11-16T18:37:41.642Z,11.73
2022-11-16T18:39:06.726Z,8.55
2022-11-16T18:40:30.112Z,7.03
2022-11-16T18:41:55.349Z,4.28
2022-11-16T18:43:19.373Z,7.03
2022-11-16T18:44:42.752Z,8.02
2022-11-16T18:46:05.460Z,6.25
2022-11-16T18:47:28.835Z,7.78
2022-11-16T18:48:52.277Z,5.40
2022-11-16T18:50:21.292Z,4.60
2022-11-16T18:51:47.483Z,9.38
2022-11-16T18:53:09.850Z,6.85
2022-11-16T18:54:34.587Z,9.75